createdAt,value
2023-06-29T00:00:00.358Z,98301.68
2023-06-29T00:02:30.583Z,98295.46
2023-06-29T00:04:59.062Z,98297.11
2023-06-29T00:07:27.012Z,98294.61
2023-06-29T00:09:55.932Z,98294.11
2023-06-29T00:12:24.030Z,98300.83
2023-06-29T00:14:52.013Z,98294.77
2023-06-29T00:18:16.979Z,98293.59
2023-06-29T00:21:24.275Z,98299.12
2023-06-29T00:23:54.854Z,98299.02
2023-06-29T00:26:22.856Z,98300.84
2023-06-29T00:28:50.816Z,98297.55
2023-06-29T00:31:20.171Z,98302.04
2023-06-29T00:33:48.129Z,98303.02
2023-06-29T00:36:16.106Z,98301.80
2023-06-29T00:38:44.034Z,98300.38
2023-06-29T00:41:12.040Z,98297.39
2023-06-29T00:43:42.471Z,98294.12
2023-06-29T00:46:12.363Z,98293.80
2023-06-29T00:48:40.416Z,98294.60
2023-06-29T00:51:08.831Z,98293.17
2023-06-29T00:53:38.430Z,98294.08
2023-06-29T00:56:06.565Z,98290.16
2023-06-29T00:58:35.000Z,98293.58
2023-06-29T01:01:03.037Z,98294.05
2023-06-29T01:03:32.256Z,98292.91
2023-06-29T01:06:08.234Z,98295.97
2023-06-29T01:08:46.863Z,98293.39
2023-06-29T01:11:16.017Z,98292.54
2023-06-29T01:13:46.321Z,98293.89
2023-06-29T01:16:16.284Z,98294.11
2023-06-29T01:18:47.045Z,98292.42
2023-06-29T01:21:17.671Z,98288.38
2023-06-29T01:23:47.884Z,98291.31
2023-06-29T01:26:17.100Z,98291.85
2023-06-29T01:28:45.079Z,98284.14
2023-06-29T01:31:13.150Z,98286.80
2023-06-29T01:33:41.907Z,98290.23
2023-06-29T01:36:24.993Z,98284.52
2023-06-29T01:39:07.172Z,98289.42
2023-06-29T01:41:41.378Z,98289.73
2023-06-29T01:44:15.920Z,98293.88
2023-06-29T01:46:46.552Z,98297.65
2023-06-29T01:49:15.102Z,98295.02
2023-06-29T01:51:43.310Z,98298.55
2023-06-29T01:54:11.576Z,98294.14
2023-06-29T01:56:39.673Z,98288.57
2023-06-29T01:59:07.581Z,98293.81
2023-06-29T02:01:35.624Z,98287.33
2023-06-29T02:04:04.314Z,98287.61
2023-06-29T02:06:32.306Z,98289.69
2023-06-29T02:09:00.739Z,98293.32
2023-06-29T02:11:28.794Z,98292.40
2023-06-29T02:13:56.777Z,98293.83
2023-06-29T02:16:25.178Z,98294.61
2023-06-29T02:18:53.247Z,98296.02
2023-06-29T02:21:21.681Z,98294.84
2023-06-29T02:23:49.736Z,98300.41
2023-06-29T02:26:17.978Z,98301.97
2023-06-29T02:28:46.085Z,98301.23
2023-06-29T02:31:14.100Z,98299.01
2023-06-29T02:33:42.170Z,98299.13
2023-06-29T02:36:11.825Z,98299.20
2023-06-29T02:38:40.057Z,98302.80
2023-06-29T02:41:08.277Z,98304.05
2023-06-29T02:43:36.254Z,98304.94
2023-06-29T02:46:04.857Z,98313.75
2023-06-29T02:48:34.328Z,98312.38
2023-06-29T02:51:02.461Z,98313.04
2023-06-29T02:53:30.687Z,98310.95
2023-06-29T02:55:58.708Z,98311.52
2023-06-29T02:58:29.050Z,98313.39
2023-06-29T03:00:57.656Z,98316.98
2023-06-29T03:03:25.745Z,98318.42
2023-06-29T03:05:53.692Z,98319.97
2023-06-29T03:08:21.958Z,98315.55
2023-06-29T03:10:50.077Z,98320.16
2023-06-29T03:13:18.099Z,98324.01
2023-06-29T03:15:46.344Z,98325.91
2023-06-29T03:18:14.771Z,98329.80
2023-06-29T03:20:43.052Z,98332.77
2023-06-29T03:23:11.045Z,98335.04
2023-06-29T03:25:38.998Z,98334.28
2023-06-29T03:28:07.007Z,98333.42
2023-06-29T03:30:34.983Z,98337.08
2023-06-29T03:33:03.081Z,98336.36
2023-06-29T03:35:31.123Z,98340.75
2023-06-29T03:37:59.101Z,98344.46
2023-06-29T03:40:27.157Z,98346.05
2023-06-29T03:42:55.263Z,98349.61
2023-06-29T03:45:23.245Z,98350.70
2023-06-29T03:47:51.450Z,98356.05
2023-06-29T03:50:19.414Z,98359.09
2023-06-29T03:52:47.552Z,98358.37
2023-06-29T03:55:17.910Z,98358.40
2023-06-29T03:57:46.500Z,98357.48
2023-06-29T04:00:16.923Z,98356.39
2023-06-29T04:02:45.057Z,98358.79
2023-06-29T04:05:13.574Z,98356.65
2023-06-29T04:07:41.679Z,98364.05
2023-06-29T04:10:09.789Z,98361.60
2023-06-29T04:12:37.772Z,98360.56
2023-06-29T04:15:06.357Z,98360.70
2023-06-29T04:17:34.288Z,98355.81
2023-06-29T04:20:04.384Z,98363.67
2023-06-29T04:22:32.974Z,98363.05
2023-06-29T04:25:00.927Z,98365.96
2023-06-29T04:27:28.908Z,98370.19
2023-06-29T04:29:56.808Z,98367.73
2023-06-29T04:32:24.765Z,98374.52
2023-06-29T04:34:52.894Z,98374.95
2023-06-29T04:37:20.864Z,98378.21
2023-06-29T04:39:49.334Z,98377.19
2023-06-29T04:42:18.253Z,98375.25
2023-06-29T04:44:46.426Z,98376.69
2023-06-29T04:47:14.634Z,98378.09
2023-06-29T04:49:45.942Z,98376.35
2023-06-29T04:52:14.067Z,98383.35
2023-06-29T04:54:42.154Z,98380.02
2023-06-29T04:57:10.168Z,98384.30
2023-06-29T04:59:38.231Z,98385.91
2023-06-29T05:02:07.021Z,98387.24
2023-06-29T05:04:35.061Z,98386.60
2023-06-29T05:07:03.080Z,98385.63
2023-06-29T05:09:31.159Z,98387.61
2023-06-29T05:11:59.059Z,98386.89
2023-06-29T05:14:27.884Z,98386.48
2023-06-29T05:16:55.997Z,98386.48
2023-06-29T05:19:24.049Z,98389.77
2023-06-29T05:21:52.030Z,98385.50
2023-06-29T05:24:20.692Z,98384.35
2023-06-29T05:26:48.645Z,98382.33
2023-06-29T05:29:16.641Z,98382.83
2023-06-29T05:31:44.727Z,98382.14
2023-06-29T05:34:12.755Z,98386.73
2023-06-29T05:36:40.686Z,98382.73
2023-06-29T05:39:08.692Z,98389.00
2023-06-29T05:41:37.063Z,98390.20
2023-06-29T05:44:05.690Z,98389.54
2023-06-29T05:46:35.263Z,98397.17
2023-06-29T05:49:03.362Z,98397.36
2023-06-29T05:51:31.393Z,98401.83
2023-06-29T05:53:59.642Z,98399.20
2023-06-29T05:56:27.823Z,98403.84
2023-06-29T05:58:55.941Z,98406.01
2023-06-29T06:01:24.045Z,98404.36
2023-06-29T06:03:52.246Z,98405.88
2023-06-29T06:06:20.250Z,98402.55
2023-06-29T06:08:48.439Z,98408.95
2023-06-29T06:11:16.468Z,98413.70
2023-06-29T06:13:45.169Z,98415.50
2023-06-29T06:16:13.829Z,98417.78
2023-06-29T06:18:41.806Z,98420.79
2023-06-29T06:21:10.231Z,98419.71
2023-06-29T06:23:38.272Z,98421.06
2023-06-29T06:26:06.259Z,98427.33
2023-06-29T06:28:34.364Z,98427.34
2023-06-29T06:31:02.442Z,98424.29
2023-06-29T06:33:31.499Z,98424.98
2023-06-29T06:36:00.913Z,98424.38
2023-06-29T06:38:41.132Z,98421.86
2023-06-29T06:41:17.579Z,98423.13
2023-06-29T06:43:45.568Z,98422.05
2023-06-29T06:46:14.313Z,98421.52
2023-06-29T06:48:42.668Z,98424.43
2023-06-29T06:51:10.797Z,98428.04
2023-06-29T06:53:38.920Z,98427.94
2023-06-29T06:56:07.181Z,98426.00
2023-06-29T06:58:35.644Z,98421.55
2023-06-29T07:01:03.803Z,98425.77
2023-06-29T07:03:31.877Z,98424.08
2023-06-29T07:06:00.177Z,98428.26
2023-06-29T07:08:29.113Z,98432.36
2023-06-29T07:10:57.126Z,98437.10
2023-06-29T07:13:25.633Z,98435.83
2023-06-29T07:15:53.716Z,98439.75
2023-06-29T07:18:21.729Z,98439.05
2023-06-29T07:25:51.918Z,98439.98
2023-06-29T07:28:20.104Z,98439.16
2023-06-29T07:30:48.101Z,98434.23
2023-06-29T07:33:16.145Z,98432.38
2023-06-29T07:35:44.307Z,98434.40
2023-06-29T07:38:12.494Z,98440.09
2023-06-29T07:40:40.680Z,98440.08
2023-06-29T07:43:08.831Z,98435.92
2023-06-29T07:45:36.790Z,98440.80
2023-06-29T07:48:04.986Z,98441.50
2023-06-29T07:50:33.008Z,98441.63
2023-06-29T07:53:01.182Z,98438.45
2023-06-29T07:55:29.308Z,98437.60
2023-06-29T08:00:28.610Z,98435.02
2023-06-29T08:02:56.813Z,98434.84
2023-06-29T08:07:55.952Z,98439.05
2023-06-29T08:10:24.742Z,98433.83
2023-06-29T08:12:52.848Z,98432.22
2023-06-29T08:15:21.129Z,98432.82
2023-06-29T08:17:49.130Z,98431.95
2023-06-29T08:20:17.276Z,98436.98
2023-06-29T08:22:46.357Z,98432.88
2023-06-29T08:25:14.359Z,98434.98
2023-06-29T08:27:43.250Z,98440.05
2023-06-29T08:30:12.049Z,98440.73
2023-06-29T08:32:40.442Z,98439.68
2023-06-29T08:35:08.768Z,98439.50
2023-06-29T08:37:37.216Z,98442.95
2023-06-29T08:40:06.753Z,98441.65
2023-06-29T08:42:36.344Z,98441.68
2023-06-29T08:45:06.828Z,98444.13
2023-06-29T08:47:36.373Z,98444.22
2023-06-29T08:50:06.428Z,98446.92
2023-06-29T08:52:35.887Z,98445.98
2023-06-29T08:55:04.678Z,98445.50
2023-06-29T08:57:33.656Z,98443.96
2023-06-29T09:00:05.048Z,98444.83
2023-06-29T09:05:04.033Z,98446.80
2023-06-29T09:07:33.268Z,98446.20
2023-06-29T09:10:01.450Z,98443.71
2023-06-29T09:12:29.573Z,98445.80
2023-06-29T09:14:58.459Z,98441.83
2023-06-29T09:17:28.117Z,98436.56
2023-06-29T09:19:56.882Z,98432.67
2023-06-29T09:22:32.303Z,98434.64
2023-06-29T09:25:09.796Z,98438.20
2023-06-29T09:27:44.281Z,98439.42
2023-06-29T09:30:22.313Z,98437.58
2023-06-29T09:32:54.170Z,98437.07
2023-06-29T09:35:24.507Z,98434.85
2023-06-29T09:37:52.827Z,98434.09
2023-06-29T09:40:20.851Z,98432.27
2023-06-29T09:42:50.013Z,98428.05
2023-06-29T09:45:18.170Z,98423.13
2023-06-29T09:50:24.915Z,98423.92
2023-06-29T09:52:55.317Z,98422.77
2023-06-29T09:55:31.427Z,98422.38
2023-06-29T09:58:00.681Z,98420.16
2023-06-29T10:00:29.267Z,98422.05
2023-06-29T10:02:57.552Z,98418.01
2023-06-29T10:05:25.811Z,98414.79
2023-06-29T10:07:54.498Z,98413.28
2023-06-29T10:10:24.942Z,98407.59
2023-06-29T10:12:57.211Z,98409.39
2023-06-29T10:15:27.675Z,98401.16
2023-06-29T10:18:17.927Z,98403.63
2023-06-29T10:20:47.357Z,98396.91
2023-06-29T10:23:18.489Z,98398.05
2023-06-29T10:25:50.044Z,98400.52
2023-06-29T10:28:20.634Z,98401.43
2023-06-29T10:30:52.090Z,98402.32
2023-06-29T10:33:24.203Z,98398.04
2023-06-29T10:35:54.008Z,98399.98
2023-06-29T10:38:27.683Z,98400.31
2023-06-29T10:40:55.750Z,98398.62
2023-06-29T10:43:29.540Z,98397.48
2023-06-29T10:46:00.353Z,98395.70
2023-06-29T10:48:47.188Z,98399.65
2023-06-29T10:51:16.366Z,98396.11
2023-06-29T10:53:48.016Z,98392.05
2023-06-29T10:56:32.255Z,98389.16
2023-06-29T10:59:00.738Z,98390.63
2023-06-29T11:01:29.411Z,98389.66
2023-06-29T11:03:57.688Z,98387.86
2023-06-29T11:06:34.159Z,98381.31
2023-06-29T11:09:13.305Z,98382.00
2023-06-29T11:11:43.497Z,98380.06
2023-06-29T11:14:15.662Z,98372.09
2023-06-29T11:16:43.789Z,98367.71
2023-06-29T11:22:01.872Z,98376.64
2023-06-29T11:24:31.226Z,98376.08
2023-06-29T11:26:59.721Z,98372.63
2023-06-29T11:29:28.966Z,98373.32
2023-06-29T11:31:57.138Z,98371.09
2023-06-29T11:34:25.187Z,98364.88
2023-06-29T11:37:09.175Z,98363.85
2023-06-29T11:39:41.265Z,98360.86
2023-06-29T11:42:10.515Z,98359.25
2023-06-29T11:44:39.486Z,98361.23
2023-06-29T11:47:31.585Z,98359.95
2023-06-29T11:49:58.812Z,98357.27
2023-06-29T11:52:33.885Z,98357.05
2023-06-29T11:55:04.581Z,98354.85
2023-06-29T11:57:33.644Z,98352.49
2023-06-29T12:00:03.300Z,98348.30
2023-06-29T12:02:42.300Z,98351.54
2023-06-29T12:05:11.253Z,98341.42
2023-06-29T12:07:40.663Z,98340.59
2023-06-29T12:10:23.018Z,98343.55
2023-06-29T12:12:57.162Z,98341.13
2023-06-29T12:15:27.086Z,98333.34
2023-06-29T12:18:16.403Z,98326.01
2023-06-29T12:20:48.117Z,98325.85
2023-06-29T12:23:16.652Z,98327.38
2023-06-29T12:25:45.896Z,98324.76
2023-06-29T12:28:15.948Z,98324.85
2023-06-29T12:30:45.024Z,98317.70
2023-06-29T12:33:14.588Z,98312.90
2023-06-29T12:35:43.935Z,98309.96
2023-06-29T12:38:12.812Z,98308.36
2023-06-29T12:40:40.886Z,98305.27
2023-06-29T12:43:08.831Z,98307.39
2023-06-29T12:45:37.066Z,98302.04
2023-06-29T12:48:05.421Z,98301.92
2023-06-29T12:50:34.056Z,98300.38
2023-06-29T12:53:02.119Z,98291.27
2023-06-29T12:55:30.010Z,98291.15
2023-06-29T12:57:57.937Z,98289.52
2023-06-29T13:00:26.146Z,98285.70
2023-06-29T13:02:54.396Z,98277.94
2023-06-29T13:05:22.853Z,98279.86
2023-06-29T13:07:50.766Z,98278.05
2023-06-29T13:10:19.518Z,98275.30
2023-06-29T13:12:47.785Z,98268.61
2023-06-29T13:15:15.823Z,98267.31
2023-06-29T13:17:44.467Z,98269.59
2023-06-29T13:20:15.920Z,98267.85
2023-06-29T13:22:44.573Z,98268.62
2023-06-29T13:25:13.012Z,98273.89
2023-06-29T13:27:42.685Z,98272.72
2023-06-29T13:30:11.240Z,98263.80
2023-06-29T13:32:39.217Z,98269.55
2023-06-29T13:35:07.457Z,98267.94
2023-06-29T13:37:35.411Z,98271.15
2023-06-29T13:40:04.059Z,98269.09
2023-06-29T13:42:31.926Z,98268.08
2023-06-29T13:44:59.844Z,98259.70
2023-06-29T13:47:28.452Z,98261.42
2023-06-29T13:49:56.438Z,98261.55
2023-06-29T13:52:24.308Z,98258.34
2023-06-29T13:54:52.230Z,98255.51
2023-06-29T13:57:21.609Z,98253.27
2023-06-29T13:59:50.266Z,98250.52
2023-06-29T14:02:18.240Z,98244.81
2023-06-29T14:04:46.546Z,98243.27
2023-06-29T14:07:16.029Z,98240.96
2023-06-29T14:09:44.059Z,98235.17
2023-06-29T14:12:12.030Z,98232.00
2023-06-29T14:14:39.889Z,98232.51
2023-06-29T14:17:07.748Z,98228.48
2023-06-29T14:19:35.644Z,98226.98
2023-06-29T14:22:04.633Z,98223.95
2023-06-29T14:24:32.620Z,98219.74
2023-06-29T14:27:00.600Z,98215.45
2023-06-29T14:29:28.465Z,98211.34
2023-06-29T14:31:56.368Z,98212.00
2023-06-29T14:34:24.400Z,98209.77
2023-06-29T14:36:52.553Z,98203.54
2023-06-29T14:39:20.460Z,98208.10
2023-06-29T14:41:53.708Z,98200.25
2023-06-29T14:44:21.697Z,98203.46
2023-06-29T14:46:51.511Z,98198.52
2023-06-29T14:49:19.592Z,98196.87
2023-06-29T14:51:47.502Z,98199.52
2023-06-29T14:54:19.440Z,98196.16
2023-06-29T14:56:47.512Z,98195.73
2023-06-29T14:59:15.650Z,98195.11
2023-06-29T15:01:43.850Z,98195.06
2023-06-29T15:04:11.857Z,98195.14
2023-06-29T15:06:39.925Z,98195.56
2023-06-29T15:09:08.736Z,98189.31
2023-06-29T15:11:37.153Z,98188.29
2023-06-29T15:14:05.488Z,98183.43
2023-06-29T15:16:35.628Z,98176.20
2023-06-29T15:19:04.380Z,98184.40
2023-06-29T15:21:35.413Z,98179.64
2023-06-29T15:24:03.775Z,98175.01
2023-06-29T15:26:31.997Z,98174.11
2023-06-29T15:28:59.973Z,98168.55
2023-06-29T15:31:31.463Z,98174.43
2023-06-29T15:34:00.036Z,98168.20
2023-06-29T15:36:30.601Z,98166.06
2023-06-29T15:38:59.103Z,98170.94
2023-06-29T15:41:29.003Z,98167.45
2023-06-29T15:44:01.950Z,98173.52
2023-06-29T15:46:31.779Z,98168.55
2023-06-29T15:49:00.388Z,98167.77
2023-06-29T15:51:29.420Z,98163.48
2023-06-29T15:54:00.310Z,98158.67
2023-06-29T15:56:30.692Z,98156.73
2023-06-29T15:59:03.009Z,98154.09
2023-06-29T16:01:31.641Z,98152.62
2023-06-29T16:03:59.790Z,98155.30
2023-06-29T16:06:29.965Z,98151.23
2023-06-29T16:08:58.978Z,98146.24
2023-06-29T16:11:27.172Z,98143.64
2023-06-29T16:13:55.962Z,98145.16
2023-06-29T16:16:24.057Z,98145.04
2023-06-29T16:18:52.223Z,98145.11
2023-06-29T16:21:20.472Z,98148.08
2023-06-29T16:23:49.052Z,98146.55
2023-06-29T16:26:17.700Z,98144.52
2023-06-29T16:28:46.445Z,98142.71
2023-06-29T16:31:14.592Z,98142.48
2023-06-29T16:33:43.025Z,98138.04
2023-06-29T16:36:11.087Z,98136.80
2023-06-29T16:38:39.636Z,98131.58
2023-06-29T16:41:07.905Z,98130.55
2023-06-29T16:43:35.886Z,98128.30
2023-06-29T16:46:03.931Z,98129.39
2023-06-29T16:48:32.145Z,98128.48
2023-06-29T16:51:00.652Z,98125.42
2023-06-29T16:53:29.198Z,98125.83
2023-06-29T16:55:57.492Z,98125.11
2023-06-29T16:58:27.792Z,98123.27
2023-06-29T17:00:55.842Z,98124.58
2023-06-29T17:03:23.871Z,98124.98
2023-06-29T17:05:52.069Z,98123.27
2023-06-29T17:08:20.075Z,98126.21
2023-06-29T17:10:47.962Z,98124.84
2023-06-29T17:13:15.836Z,98126.39
2023-06-29T17:15:44.106Z,98119.83
2023-06-29T17:18:12.393Z,98120.84
2023-06-29T17:20:40.346Z,98121.27
2023-06-29T17:23:08.469Z,98124.05
2023-06-29T17:25:44.889Z,98121.33
2023-06-29T17:28:13.331Z,98119.30
2023-06-29T17:30:41.909Z,98123.36
2023-06-29T17:33:11.269Z,98117.94
2023-06-29T17:35:39.635Z,98118.59
2023-06-29T17:38:07.629Z,98116.90
2023-06-29T17:40:36.201Z,98113.95
2023-06-29T17:43:04.129Z,98111.51
2023-06-29T17:45:32.869Z,98115.84
2023-06-29T17:48:00.894Z,98113.67
2023-06-29T17:50:29.185Z,98113.73
2023-06-29T17:52:58.023Z,98110.58
2023-06-29T17:55:26.043Z,98109.55
2023-06-29T17:57:54.195Z,98108.13
2023-06-29T18:00:22.201Z,98106.46
2023-06-29T18:02:50.630Z,98105.31
2023-06-29T18:05:18.766Z,98105.88
2023-06-29T18:07:46.804Z,98108.52
2023-06-29T18:10:14.703Z,98107.83
2023-06-29T18:12:42.692Z,98105.34
2023-06-29T18:15:11.205Z,98107.10
2023-06-29T18:17:39.239Z,98102.50
2023-06-29T18:20:07.913Z,98103.19
2023-06-29T18:22:36.066Z,98104.85
2023-06-29T18:25:05.158Z,98104.56
2023-06-29T18:27:33.228Z,98106.39
2023-06-29T18:30:01.466Z,98103.12
2023-06-29T18:32:29.585Z,98104.36
2023-06-29T18:34:57.532Z,98107.16
2023-06-29T18:37:25.449Z,98105.89
2023-06-29T18:39:53.462Z,98109.29
2023-06-29T18:42:21.895Z,98108.21
2023-06-29T18:44:50.588Z,98105.27
2023-06-29T18:47:19.014Z,98106.11
2023-06-29T18:49:52.448Z,98105.34
2023-06-29T18:52:21.438Z,98108.40
2023-06-29T18:54:52.711Z,98104.11
2023-06-29T18:57:21.126Z,98109.73
2023-06-29T18:59:50.053Z,98103.90
2023-06-29T19:02:19.688Z,98104.50
2023-06-29T19:04:48.033Z,98106.66
2023-06-29T19:07:17.804Z,98103.91
2023-06-29T19:09:46.180Z,98108.27
2023-06-29T19:12:14.400Z,98108.97
2023-06-29T19:14:43.269Z,98114.05
2023-06-29T19:17:11.504Z,98114.73
2023-06-29T19:19:39.834Z,98116.49
2023-06-29T19:22:08.689Z,98120.73
2023-06-29T19:24:37.068Z,98121.80
2023-06-29T19:27:07.243Z,98119.86
2023-06-29T19:29:35.621Z,98121.44
2023-06-29T19:32:06.168Z,98118.66
2023-06-29T19:34:38.890Z,98122.98
2023-06-29T19:37:07.512Z,98125.30
2023-06-29T19:39:36.164Z,98126.33
2023-06-29T19:42:05.304Z,98126.21
2023-06-29T19:44:33.307Z,98131.77
2023-06-29T19:47:01.708Z,98129.60
2023-06-29T19:49:29.636Z,98130.69
2023-06-29T19:51:58.947Z,98131.54
2023-06-29T19:54:27.228Z,98134.48
2023-06-29T19:56:55.746Z,98135.47
2023-06-29T19:59:23.716Z,98139.48
2023-06-29T20:01:51.885Z,98139.83
2023-06-29T20:04:20.115Z,98139.56
2023-06-29T20:06:48.578Z,98139.86
2023-06-29T20:09:16.611Z,98138.69
2023-06-29T20:11:44.952Z,98141.45
2023-06-29T20:14:12.911Z,98142.34
2023-06-29T20:16:40.988Z,98143.11
2023-06-29T20:19:09.033Z,98145.38
2023-06-29T20:21:37.044Z,98140.50
2023-06-29T20:24:05.054Z,98144.25
2023-06-29T20:26:33.978Z,98142.42
2023-06-29T20:29:01.914Z,98143.16
2023-06-29T20:31:30.918Z,98144.83
2023-06-29T20:33:58.927Z,98140.46
2023-06-29T20:36:27.085Z,98139.67
2023-06-29T20:38:55.052Z,98135.09
2023-06-29T20:41:24.563Z,98134.86
2023-06-29T20:43:52.575Z,98134.19
2023-06-29T20:46:20.593Z,98134.51
2023-06-29T20:48:48.782Z,98140.04
2023-06-29T20:51:18.290Z,98136.34
2023-06-29T20:53:47.206Z,98134.16
2023-06-29T20:56:15.089Z,98132.43
2023-06-29T20:58:43.283Z,98132.30
2023-06-29T21:01:11.436Z,98131.74
2023-06-29T21:03:44.927Z,98134.45
2023-06-29T21:06:13.548Z,98138.20
2023-06-29T21:08:42.339Z,98135.52
2023-06-29T21:11:10.833Z,98137.67
2023-06-29T21:13:38.978Z,98141.27
2023-06-29T21:16:07.355Z,98135.40
2023-06-29T21:18:35.677Z,98134.85
2023-06-29T21:21:04.133Z,98129.71
2023-06-29T21:23:32.104Z,98129.36
2023-06-29T21:26:00.349Z,98122.02
2023-06-29T21:28:28.862Z,98124.17
2023-06-29T21:30:58.199Z,98128.01
2023-06-29T21:33:27.405Z,98126.71
2023-06-29T21:35:55.558Z,98123.92
2023-06-29T21:38:27.973Z,98124.23
2023-06-29T21:41:00.410Z,98124.12
2023-06-29T21:43:28.448Z,98127.18
2023-06-29T21:45:56.498Z,98127.98
2023-06-29T21:48:24.516Z,98123.95
2023-06-29T21:50:52.624Z,98120.75
2023-06-29T21:53:21.318Z,98122.99
2023-06-29T21:55:49.427Z,98119.91
2023-06-29T21:58:17.400Z,98123.05
2023-06-29T22:00:46.005Z,98120.09
2023-06-29T22:03:14.244Z,98119.95
2023-06-29T22:05:42.184Z,98119.81
2023-06-29T22:08:11.672Z,98123.56
2023-06-29T22:10:39.652Z,98122.06
2023-06-29T22:13:07.582Z,98120.55
2023-06-29T22:15:38.228Z,98122.02
2023-06-29T22:18:06.973Z,98120.21
2023-06-29T22:20:35.119Z,98119.64
2023-06-29T22:23:03.879Z,98120.42
2023-06-29T22:25:33.223Z,98118.42
2023-06-29T22:28:01.303Z,98117.36
2023-06-29T22:30:29.272Z,98114.96
2023-06-29T22:32:57.353Z,98112.12
2023-06-29T22:35:26.097Z,98112.42
2023-06-29T22:37:54.159Z,98110.10
2023-06-29T22:40:22.315Z,98110.10
2023-06-29T22:42:50.261Z,98112.57
2023-06-29T22:45:19.285Z,98112.17
2023-06-29T22:47:47.263Z,98112.11
2023-06-29T22:50:15.441Z,98111.68
2023-06-29T22:52:44.506Z,98114.98
2023-06-29T22:55:12.882Z,98112.86
2023-06-29T22:57:40.956Z,98112.74
2023-06-29T23:00:10.273Z,98112.41
2023-06-29T23:02:39.135Z,98112.21
2023-06-29T23:05:08.493Z,98108.94
2023-06-29T23:07:44.527Z,98110.80
2023-06-29T23:10:16.339Z,98110.17
2023-06-29T23:12:47.679Z,98099.05
2023-06-29T23:15:17.073Z,98099.83
2023-06-29T23:17:46.041Z,98101.19
2023-06-29T23:20:14.394Z,98097.89
2023-06-29T23:22:45.306Z,98094.89
2023-06-29T23:25:13.372Z,98095.36
2023-06-29T23:27:44.697Z,98095.04
2023-06-29T23:30:15.722Z,98096.81
2023-06-29T23:32:51.264Z,98096.40
2023-06-29T23:35:21.787Z,98099.13
2023-06-29T23:37:49.930Z,98099.54
2023-06-29T23:40:18.054Z,98095.94
2023-06-29T23:42:46.117Z,98099.33
2023-06-29T23:45:14.143Z,98104.33
2023-06-29T23:47:42.160Z,98101.33
2023-06-29T23:50:12.562Z,98097.89
2023-06-29T23:52:41.829Z,98095.10
2023-06-29T23:55:12.952Z,98096.41
2023-06-29T23:57:42.086Z,98096.85
